createdAt,value
2022-12-26T00:00:37.340Z,13.60
2022-12-26T00:03:04.256Z,13.60
2022-12-26T00:05:36.644Z,13.60
2022-12-26T00:08:04.023Z,13.60
2022-12-26T00:10:30.768Z,13.60
2022-12-26T00:13:39.739Z,13.60
2022-12-26T00:15:44.325Z,13.70
2022-12-26T00:18:11.149Z,13.60
2022-12-26T00:20:37.921Z,13.70
2022-12-26T00:23:04.620Z,13.60
2022-12-26T00:25:34.462Z,13.60
2022-12-26T00:28:01.406Z,13.60
2022-12-26T00:30:28.360Z,13.60
2022-12-26T00:32:55.397Z,13.70
2022-12-26T00:35:25.350Z,13.60
2022-12-26T00:37:52.125Z,13.60
2022-12-26T00:40:18.955Z,13.50
2022-12-26T00:42:45.708Z,13.50
2022-12-26T00:45:12.600Z,13.50
2022-12-26T00:47:39.438Z,13.60
2022-12-26T00:50:14.019Z,13.50
2022-12-26T00:52:42.965Z,13.50
2022-12-26T00:55:10.498Z,13.50
2022-12-26T00:57:37.423Z,13.50
2022-12-26T01:00:05.192Z,13.40
2022-12-26T01:02:38.022Z,13.40
2022-12-26T01:05:08.884Z,13.40
2022-12-26T01:08:19.770Z,13.40
2022-12-26T01:10:28.100Z,13.50
2022-12-26T01:12:54.983Z,13.30
2022-12-26T01:15:21.736Z,13.30
2022-12-26T01:17:48.476Z,13.30
2022-12-26T01:20:15.385Z,13.30
2022-12-26T01:22:42.207Z,13.30
2022-12-26T01:25:10.473Z,13.30
2022-12-26T01:27:37.579Z,13.30
2022-12-26T01:30:05.079Z,13.40
2022-12-26T01:32:31.817Z,13.40
2022-12-26T01:34:58.546Z,13.40
2022-12-26T01:37:25.476Z,13.30
2022-12-26T01:39:52.287Z,13.30
2022-12-26T01:42:23.048Z,13.30
2022-12-26T01:45:17.904Z,13.40
2022-12-26T01:48:15.237Z,13.30
2022-12-26T01:50:49.299Z,13.30
2022-12-26T01:53:28.656Z,13.30
2022-12-26T01:56:01.351Z,13.40
2022-12-26T01:58:32.507Z,13.30
2022-12-26T02:00:59.482Z,13.30
2022-12-26T02:03:45.324Z,13.20
2022-12-26T02:06:14.433Z,13.50
2022-12-26T02:08:41.780Z,13.30
2022-12-26T02:11:33.026Z,13.50
2022-12-26T02:14:01.598Z,13.30
2022-12-26T02:16:28.996Z,13.40
2022-12-26T02:18:55.823Z,13.30
2022-12-26T02:21:55.823Z,13.50
2022-12-26T02:24:22.498Z,13.30
2022-12-26T02:27:20.593Z,13.50
2022-12-26T02:30:02.787Z,13.40
2022-12-26T02:32:58.849Z,13.40
2022-12-26T02:36:13.309Z,13.40
2022-12-26T02:39:42.380Z,13.30
2022-12-26T02:41:55.235Z,13.30
2022-12-26T02:45:07.318Z,13.30
2022-12-26T02:47:44.864Z,13.30
2022-12-26T02:50:47.797Z,13.30
2022-12-26T02:53:49.908Z,13.30
2022-12-26T02:56:57.330Z,13.30
2022-12-26T03:00:07.462Z,13.20
2022-12-26T03:02:59.768Z,13.20
2022-12-26T03:05:55.097Z,13.10
2022-12-26T03:09:04.489Z,13.10
2022-12-26T03:11:56.176Z,13.10
2022-12-26T03:14:53.985Z,13.00
2022-12-26T03:17:42.577Z,13.10
2022-12-26T03:20:13.984Z,13.10
2022-12-26T03:23:03.853Z,13.10
2022-12-26T03:25:55.373Z,13.10
2022-12-26T03:28:23.241Z,13.20
2022-12-26T03:30:50.177Z,13.20
2022-12-26T03:33:37.288Z,13.10
2022-12-26T03:36:05.903Z,13.00
2022-12-26T03:39:07.752Z,13.10
2022-12-26T03:42:06.132Z,13.00
2022-12-26T03:44:59.001Z,13.00
2022-12-26T03:48:16.887Z,13.00
2022-12-26T03:51:07.754Z,12.90
2022-12-26T03:53:55.421Z,13.00
2022-12-26T03:56:51.889Z,13.00
2022-12-26T03:59:48.712Z,13.00
2022-12-26T04:02:35.403Z,13.00
2022-12-26T04:05:25.306Z,12.90
2022-12-26T04:08:19.132Z,12.90
2022-12-26T04:11:11.313Z,12.90
2022-12-26T04:14:08.872Z,12.90
2022-12-26T04:17:06.916Z,12.80
2022-12-26T04:20:09.079Z,12.80
2022-12-26T04:23:10.633Z,12.70
2022-12-26T04:26:05.411Z,12.80
2022-12-26T04:28:51.404Z,12.70
2022-12-26T04:31:47.246Z,12.70
2022-12-26T04:34:58.215Z,12.70
2022-12-26T04:37:47.372Z,12.60
2022-12-26T04:40:47.755Z,12.60
2022-12-26T04:43:47.530Z,12.60
2022-12-26T04:46:19.195Z,12.50
2022-12-26T04:49:07.317Z,12.60
2022-12-26T04:51:34.635Z,12.50
2022-12-26T04:54:01.525Z,12.60
2022-12-26T04:56:29.950Z,12.60
2022-12-26T04:58:56.842Z,12.70
2022-12-26T05:01:42.296Z,12.70
2022-12-26T05:04:32.766Z,12.60
2022-12-26T05:07:20.447Z,12.70
2022-12-26T05:09:50.062Z,12.60
2022-12-26T05:12:17.010Z,12.60
2022-12-26T05:14:43.772Z,12.60
2022-12-26T05:17:31.058Z,12.60
2022-12-26T05:20:16.514Z,12.50
2022-12-26T05:23:03.704Z,12.60
2022-12-26T05:25:52.934Z,12.60
2022-12-26T05:28:38.947Z,12.60
2022-12-26T05:31:06.381Z,12.60
2022-12-26T05:33:51.474Z,12.60
2022-12-26T05:36:20.438Z,12.60
2022-12-26T05:38:48.259Z,12.60
2022-12-26T05:41:15.716Z,12.50
2022-12-26T05:43:42.451Z,12.60
2022-12-26T05:46:09.403Z,12.50
2022-12-26T05:48:36.236Z,12.50
2022-12-26T05:51:04.001Z,12.40
2022-12-26T05:53:32.048Z,12.40
2022-12-26T05:56:06.572Z,12.40
2022-12-26T05:58:34.021Z,12.40
2022-12-26T06:01:06.230Z,12.40
2022-12-26T06:03:33.884Z,12.40
2022-12-26T06:06:00.792Z,12.40
2022-12-26T06:08:28.980Z,12.30
2022-12-26T06:10:55.775Z,12.30
2022-12-26T06:13:22.715Z,12.30
2022-12-26T06:15:49.674Z,12.30
2022-12-26T06:18:16.450Z,12.30
2022-12-26T06:20:43.187Z,12.40
2022-12-26T06:23:09.998Z,12.30
2022-12-26T06:25:36.756Z,12.20
2022-12-26T06:28:03.750Z,12.30
2022-12-26T06:30:30.518Z,12.30
2022-12-26T06:32:57.571Z,12.40
2022-12-26T06:35:24.307Z,12.40
2022-12-26T06:37:52.076Z,12.50
2022-12-26T06:40:19.012Z,12.40
2022-12-26T06:42:45.765Z,12.30
2022-12-26T06:45:13.838Z,12.30
2022-12-26T06:47:40.737Z,12.30
2022-12-26T06:50:07.769Z,12.30
2022-12-26T06:52:34.584Z,12.30
2022-12-26T06:55:01.492Z,12.30
2022-12-26T06:57:28.322Z,12.20
2022-12-26T06:59:55.095Z,12.00
2022-12-26T07:02:21.933Z,12.20
2022-12-26T07:04:48.749Z,12.20
2022-12-26T07:07:15.470Z,12.20
2022-12-26T07:09:42.426Z,12.30
2022-12-26T07:12:09.181Z,12.30
2022-12-26T07:14:36.677Z,12.50
2022-12-26T07:17:03.397Z,12.40
2022-12-26T07:19:30.133Z,12.40
2022-12-26T07:21:56.942Z,12.50
2022-12-26T07:24:23.707Z,12.50
2022-12-26T07:26:50.662Z,12.60
2022-12-26T07:29:17.805Z,12.60
2022-12-26T07:31:44.900Z,12.50
2022-12-26T07:34:11.782Z,12.50
2022-12-26T07:36:39.798Z,12.40
2022-12-26T07:39:06.670Z,12.40
2022-12-26T07:41:53.153Z,12.40
2022-12-26T07:44:20.298Z,12.40
2022-12-26T07:46:47.009Z,12.40
2022-12-26T07:49:14.218Z,12.40
2022-12-26T07:51:41.845Z,12.50
2022-12-26T07:54:11.430Z,12.60
2022-12-26T07:56:39.390Z,12.60
2022-12-26T07:59:06.270Z,12.60
2022-12-26T08:01:33.280Z,12.70
2022-12-26T08:04:00.408Z,12.70
2022-12-26T08:06:27.724Z,12.70
2022-12-26T08:08:54.469Z,12.90
2022-12-26T08:11:23.575Z,12.80
2022-12-26T08:13:51.837Z,12.80
2022-12-26T08:16:21.419Z,13.00
2022-12-26T08:18:48.271Z,12.90
2022-12-26T08:21:15.128Z,12.90
2022-12-26T08:23:41.954Z,13.00
2022-12-26T08:26:11.980Z,13.00
2022-12-26T08:28:42.046Z,12.90
2022-12-26T08:31:10.052Z,12.90
2022-12-26T08:33:37.115Z,12.90
2022-12-26T08:36:09.139Z,12.90
2022-12-26T08:38:37.170Z,13.00
2022-12-26T08:41:05.116Z,13.00
2022-12-26T08:43:53.129Z,13.00
2022-12-26T08:46:20.762Z,13.00
2022-12-26T08:48:48.842Z,13.10
2022-12-26T08:51:21.984Z,13.10
2022-12-26T08:53:50.220Z,13.20
2022-12-26T08:56:23.490Z,13.20
2022-12-26T08:58:50.347Z,13.20
2022-12-26T09:01:20.654Z,13.40
2022-12-26T09:03:47.979Z,13.30
2022-12-26T09:06:15.639Z,13.30
2022-12-26T09:08:42.923Z,13.20
2022-12-26T09:11:14.217Z,13.20
2022-12-26T09:13:42.535Z,13.10
2022-12-26T09:16:15.303Z,13.00
2022-12-26T09:18:43.451Z,12.90
2022-12-26T09:21:12.133Z,12.80
2022-12-26T09:23:39.853Z,12.80
2022-12-26T09:26:12.582Z,12.70
2022-12-26T09:28:39.981Z,12.70
2022-12-26T09:31:11.503Z,12.90
2022-12-26T09:33:39.043Z,12.90
2022-12-26T09:36:14.767Z,12.80
2022-12-26T09:38:43.854Z,12.80
2022-12-26T09:41:36.445Z,12.70
2022-12-26T09:44:15.273Z,12.80
2022-12-26T09:47:00.637Z,12.80
2022-12-26T09:49:37.792Z,12.80
2022-12-26T09:52:14.557Z,12.80
2022-12-26T09:55:02.303Z,12.90
2022-12-26T09:57:50.995Z,12.90
2022-12-26T10:00:20.955Z,13.00
2022-12-26T10:02:55.601Z,13.00
2022-12-26T10:05:33.743Z,12.90
2022-12-26T10:08:23.554Z,12.80
2022-12-26T10:11:02.702Z,12.70
2022-12-26T10:13:41.072Z,12.80
2022-12-26T10:16:19.688Z,12.70
2022-12-26T10:19:06.245Z,12.90
2022-12-26T10:21:52.387Z,12.90
2022-12-26T10:24:22.769Z,13.00
2022-12-26T10:26:55.601Z,13.20
2022-12-26T10:29:28.020Z,12.90
2022-12-26T10:31:58.922Z,12.80
2022-12-26T10:34:37.604Z,12.70
2022-12-26T10:37:30.833Z,12.70
2022-12-26T10:40:20.777Z,12.60
2022-12-26T10:42:53.562Z,12.70
2022-12-26T10:45:39.880Z,12.50
2022-12-26T10:48:06.826Z,12.70
2022-12-26T10:50:35.496Z,12.80
2022-12-26T10:53:06.973Z,12.80
2022-12-26T10:55:35.533Z,12.70
2022-12-26T10:58:14.448Z,12.60
2022-12-26T11:00:41.253Z,12.50
2022-12-26T11:03:22.409Z,12.70
2022-12-26T11:06:09.540Z,12.70
2022-12-26T11:08:49.223Z,12.70
2022-12-26T11:11:46.707Z,12.50
2022-12-26T11:14:38.400Z,12.30
2022-12-26T11:17:13.583Z,12.10
2022-12-26T11:19:44.321Z,12.00
2022-12-26T11:22:28.595Z,12.20
2022-12-26T11:25:39.392Z,12.20
2022-12-26T11:28:24.072Z,12.10
2022-12-26T11:30:50.939Z,12.20
2022-12-26T11:33:28.068Z,12.30
2022-12-26T11:36:15.958Z,12.40
2022-12-26T11:38:57.761Z,12.50
2022-12-26T11:41:33.542Z,12.40
2022-12-26T11:44:09.693Z,12.40
2022-12-26T11:46:48.785Z,12.40
2022-12-26T11:49:26.799Z,12.50
2022-12-26T11:51:59.182Z,12.50
2022-12-26T11:54:47.805Z,12.50
2022-12-26T11:57:27.582Z,12.30
2022-12-26T11:59:59.817Z,12.10
2022-12-26T12:02:29.986Z,12.10
2022-12-26T12:05:01.587Z,12.30
2022-12-26T12:08:03.625Z,12.40
2022-12-26T12:11:06.098Z,12.30
2022-12-26T12:13:47.458Z,12.10
2022-12-26T12:16:41.735Z,12.00
2022-12-26T12:19:14.901Z,12.00
2022-12-26T12:22:04.406Z,12.00
2022-12-26T12:24:52.903Z,11.90
2022-12-26T12:27:44.783Z,11.80
2022-12-26T12:30:23.984Z,11.60
2022-12-26T12:33:29.672Z,11.50
2022-12-26T12:36:10.782Z,11.40
2022-12-26T12:39:03.613Z,11.40
2022-12-26T12:42:06.247Z,11.40
2022-12-26T12:44:58.170Z,11.40
2022-12-26T12:47:49.123Z,11.30
2022-12-26T12:50:15.776Z,11.20
2022-12-26T12:53:01.490Z,11.20
2022-12-26T12:56:04.201Z,11.30
2022-12-26T12:58:48.669Z,11.20
2022-12-26T13:01:28.308Z,11.20
2022-12-26T13:04:22.678Z,11.10
2022-12-26T13:07:14.230Z,11.10
2022-12-26T13:09:52.965Z,10.90
2022-12-26T13:12:24.151Z,10.90
2022-12-26T13:15:23.235Z,10.90
2022-12-26T13:18:05.812Z,10.80
2022-12-26T13:20:49.952Z,10.90
2022-12-26T13:24:08.929Z,11.00
2022-12-26T13:26:39.249Z,10.90
2022-12-26T13:29:15.258Z,10.80
2022-12-26T13:31:42.606Z,10.80
2022-12-26T13:34:15.765Z,10.70
2022-12-26T13:36:49.426Z,10.70
2022-12-26T13:39:25.141Z,10.60
2022-12-26T13:42:19.614Z,10.60
2022-12-26T13:44:53.034Z,10.50
2022-12-26T13:47:33.725Z,10.50
2022-12-26T13:50:38.977Z,10.40
2022-12-26T13:53:25.697Z,10.40
2022-12-26T13:55:53.729Z,10.30
2022-12-26T13:58:47.753Z,10.30
2022-12-26T14:01:40.759Z,10.30
2022-12-26T14:04:32.216Z,10.20
2022-12-26T14:07:05.083Z,10.20
2022-12-26T14:09:43.772Z,10.10
2022-12-26T14:12:21.938Z,10.10
2022-12-26T14:15:14.912Z,10.10
2022-12-26T14:17:49.153Z,10.10
2022-12-26T14:20:34.196Z,10.10
2022-12-26T14:23:33.435Z,10.10
2022-12-26T14:26:26.527Z,10.10
2022-12-26T14:29:25.757Z,10.10
2022-12-26T14:32:23.377Z,10.10
2022-12-26T14:35:01.992Z,10.00
2022-12-26T14:37:43.048Z,10.00
2022-12-26T14:40:34.719Z,10.00
2022-12-26T14:43:16.707Z,9.90
2022-12-26T14:45:45.487Z,9.90
2022-12-26T14:48:15.378Z,9.80
2022-12-26T14:50:47.935Z,9.80
2022-12-26T14:53:17.888Z,9.80
2022-12-26T14:55:52.220Z,9.80
2022-12-26T14:58:52.192Z,10.10
2022-12-26T15:01:24.918Z,10.00
2022-12-26T15:03:58.279Z,10.00
2022-12-26T15:06:46.474Z,9.90
2022-12-26T15:09:31.962Z,9.90
2022-12-26T15:12:36.816Z,9.80
2022-12-26T15:15:41.430Z,9.70
2022-12-26T15:18:10.948Z,9.60
2022-12-26T15:21:01.247Z,9.60
2022-12-26T15:23:48.003Z,9.40
2022-12-26T15:26:42.497Z,9.40
2022-12-26T15:29:36.164Z,9.40
2022-12-26T15:32:14.137Z,9.30
2022-12-26T15:35:17.752Z,9.30
2022-12-26T15:37:53.644Z,9.30
2022-12-26T15:40:28.764Z,9.20
2022-12-26T15:43:35.199Z,9.20
2022-12-26T15:46:23.878Z,9.20
2022-12-26T15:49:09.157Z,9.20
2022-12-26T15:51:56.338Z,9.10
2022-12-26T15:54:50.492Z,9.10
2022-12-26T15:57:48.089Z,9.10
2022-12-26T16:00:30.170Z,9.00
2022-12-26T16:03:06.129Z,8.70
2022-12-26T16:05:43.441Z,8.90
2022-12-26T16:08:20.842Z,9.00
2022-12-26T16:10:52.565Z,9.10
2022-12-26T16:13:22.999Z,9.10
2022-12-26T16:15:59.171Z,9.20
2022-12-26T16:18:28.490Z,9.20
2022-12-26T16:21:18.143Z,9.20
2022-12-26T16:23:46.677Z,9.20
2022-12-26T16:26:41.878Z,9.10
2022-12-26T16:29:16.194Z,8.80
2022-12-26T16:31:43.084Z,9.00
2022-12-26T16:34:19.208Z,9.00
2022-12-26T16:36:49.138Z,9.10
2022-12-26T16:39:23.357Z,9.10
2022-12-26T16:42:00.793Z,9.00
2022-12-26T16:44:30.669Z,8.90
2022-12-26T16:47:02.263Z,9.00
2022-12-26T16:49:31.325Z,8.90
2022-12-26T16:51:58.175Z,8.90
2022-12-26T16:54:36.448Z,8.80
2022-12-26T16:57:05.815Z,8.80
2022-12-26T16:59:58.084Z,8.80
2022-12-26T17:02:26.760Z,8.80
2022-12-26T17:05:00.567Z,8.80
2022-12-26T17:07:28.437Z,8.70
2022-12-26T17:09:58.652Z,8.70
2022-12-26T17:12:30.326Z,8.40
2022-12-26T17:14:58.863Z,8.50
2022-12-26T17:17:29.708Z,8.60
2022-12-26T17:19:58.864Z,8.60
2022-12-26T17:22:34.732Z,8.60
2022-12-26T17:25:24.570Z,8.60
2022-12-26T17:28:09.854Z,8.50
2022-12-26T17:30:42.843Z,8.50
2022-12-26T17:33:15.078Z,8.40
2022-12-26T17:36:52.502Z,8.40
2022-12-26T17:38:49.976Z,8.40
2022-12-26T17:41:17.635Z,8.40
2022-12-26T17:43:45.643Z,8.30
2022-12-26T17:46:15.768Z,8.30
2022-12-26T17:48:43.292Z,8.20
2022-12-26T17:51:17.017Z,8.30
2022-12-26T17:53:49.256Z,8.30
2022-12-26T17:56:20.872Z,8.30
2022-12-26T17:58:49.042Z,8.20
2022-12-26T18:01:21.089Z,8.30
2022-12-26T18:03:49.224Z,8.20
2022-12-26T18:06:17.332Z,8.30
2022-12-26T18:08:44.888Z,8.40
2022-12-26T18:11:13.502Z,8.40
2022-12-26T18:13:41.069Z,8.50
2022-12-26T18:16:10.401Z,8.60
2022-12-26T18:18:43.279Z,8.70
2022-12-26T18:21:12.310Z,8.70
2022-12-26T18:23:39.768Z,8.70
2022-12-26T18:26:27.268Z,8.70
2022-12-26T18:28:54.546Z,8.70
2022-12-26T18:31:21.587Z,8.60
2022-12-26T18:33:48.408Z,8.70
2022-12-26T18:36:16.495Z,8.60
2022-12-26T18:38:43.914Z,8.50
2022-12-26T18:41:17.590Z,8.50
2022-12-26T18:43:44.503Z,8.40
2022-12-26T18:46:25.558Z,8.40
2022-12-26T18:48:56.796Z,8.30
2022-12-26T18:51:25.132Z,8.20
2022-12-26T18:53:52.302Z,8.20
2022-12-26T18:56:21.699Z,8.20
2022-12-26T18:58:55.549Z,8.20
2022-12-26T19:01:24.602Z,8.20
2022-12-26T19:03:53.551Z,8.20
2022-12-26T19:06:23.772Z,8.20
2022-12-26T19:08:50.596Z,8.20
2022-12-26T19:11:17.431Z,8.20
2022-12-26T19:13:44.341Z,8.20
2022-12-26T19:16:11.524Z,8.30
2022-12-26T19:18:38.539Z,8.40
2022-12-26T19:21:10.111Z,8.50
2022-12-26T19:23:36.881Z,8.50
2022-12-26T19:26:12.603Z,8.50
2022-12-26T19:28:39.588Z,8.40
2022-12-26T19:31:11.892Z,8.40
2022-12-26T19:33:38.900Z,8.40
2022-12-26T19:36:07.696Z,8.30
2022-12-26T19:38:34.866Z,8.20
2022-12-26T19:41:07.330Z,8.30
2022-12-26T19:43:34.554Z,8.30
2022-12-26T19:46:11.369Z,8.30
2022-12-26T19:48:39.201Z,8.30
2022-12-26T19:51:08.933Z,8.30
2022-12-26T19:53:37.614Z,8.40
2022-12-26T19:56:25.506Z,8.40
2022-12-26T19:58:56.424Z,8.50
2022-12-26T20:01:30.781Z,8.60
2022-12-26T20:03:59.721Z,8.50
2022-12-26T20:06:28.600Z,8.40
2022-12-26T20:09:00.947Z,8.40
2022-12-26T20:11:30.670Z,8.40
2022-12-26T20:13:58.809Z,8.40
2022-12-26T20:19:13.084Z,8.20
2022-12-26T20:21:40.038Z,8.20
2022-12-26T20:24:06.964Z,8.20
2022-12-26T20:26:33.802Z,8.20
2022-12-26T20:29:01.787Z,8.20
2022-12-26T20:31:30.092Z,8.20
2022-12-26T20:33:57.828Z,8.20
2022-12-26T20:36:27.916Z,8.10
2022-12-26T20:38:57.468Z,8.10
2022-12-26T20:41:25.326Z,8.20
2022-12-26T20:43:52.528Z,8.20
2022-12-26T20:46:27.810Z,8.30
2022-12-26T20:48:54.901Z,8.20
2022-12-26T20:51:36.502Z,8.20
2022-12-26T20:54:05.723Z,8.10
2022-12-26T20:56:32.690Z,8.10
2022-12-26T20:58:59.923Z,8.00
2022-12-26T21:01:27.721Z,8.00
2022-12-26T21:03:56.073Z,8.00
2022-12-26T21:06:32.130Z,8.10
2022-12-26T21:08:59.281Z,8.10
2022-12-26T21:11:28.805Z,8.10
2022-12-26T21:14:02.602Z,8.00
2022-12-26T21:16:32.826Z,8.00
2022-12-26T21:19:00.068Z,8.00
2022-12-26T21:21:29.526Z,8.00
2022-12-26T21:24:02.347Z,8.00
2022-12-26T21:26:29.730Z,8.00
2022-12-26T21:29:01.411Z,7.90
2022-12-26T21:31:30.047Z,7.90
2022-12-26T21:33:58.688Z,7.90
2022-12-26T21:36:26.086Z,8.00
2022-12-26T21:38:53.655Z,8.00
2022-12-26T21:41:20.469Z,8.00
2022-12-26T21:43:47.634Z,8.00
2022-12-26T21:46:16.940Z,8.00
2022-12-26T21:48:49.953Z,8.10
2022-12-26T21:51:18.259Z,8.00
2022-12-26T21:53:45.821Z,8.00
2022-12-26T21:56:14.450Z,8.00
2022-12-26T21:59:00.673Z,8.00
2022-12-26T22:01:28.188Z,8.00
2022-12-26T22:04:14.627Z,8.00
2022-12-26T22:06:42.063Z,8.00
2022-12-26T22:09:09.809Z,8.00
2022-12-26T22:11:55.233Z,7.90
2022-12-26T22:14:22.364Z,7.90
2022-12-26T22:16:53.612Z,7.90
2022-12-26T22:19:20.677Z,7.80
2022-12-26T22:21:47.621Z,7.70
2022-12-26T22:24:14.904Z,7.70
2022-12-26T22:26:41.938Z,7.90
2022-12-26T22:29:09.086Z,7.90
2022-12-26T22:31:38.231Z,7.90
2022-12-26T22:34:07.731Z,7.90
2022-12-26T22:36:34.948Z,7.80
2022-12-26T22:39:01.719Z,7.80
2022-12-26T22:41:29.014Z,7.70
2022-12-26T22:43:56.146Z,7.70
2022-12-26T22:46:23.116Z,7.60
2022-12-26T22:48:50.321Z,7.60
2022-12-26T22:51:19.634Z,7.60
2022-12-26T22:53:47.105Z,7.50
2022-12-26T22:56:14.126Z,7.60
2022-12-26T22:58:41.176Z,7.50
2022-12-26T23:01:16.486Z,7.50
2022-12-26T23:03:43.707Z,7.40
2022-12-26T23:06:22.992Z,7.50
2022-12-26T23:08:53.432Z,7.40
2022-12-26T23:11:21.936Z,7.40
2022-12-26T23:13:49.661Z,7.50
2022-12-26T23:16:44.788Z,7.40
2022-12-26T23:19:47.970Z,7.50
2022-12-26T23:22:15.397Z,7.50
2022-12-26T23:24:42.256Z,7.50
2022-12-26T23:27:28.040Z,7.40
2022-12-26T23:30:14.026Z,7.40
2022-12-26T23:32:42.469Z,7.40
2022-12-26T23:35:11.395Z,7.40
2022-12-26T23:37:39.679Z,7.40
2022-12-26T23:40:08.744Z,7.40
2022-12-26T23:42:36.115Z,7.40
2022-12-26T23:45:03.329Z,7.40
2022-12-26T23:47:30.164Z,7.40
2022-12-26T23:49:57.010Z,7.40
2022-12-26T23:52:29.882Z,7.40
2022-12-26T23:54:57.797Z,7.50
2022-12-26T23:57:24.624Z,7.60
2022-12-26T23:59:51.537Z,7.70
